Terminal Aerodrome Forecast
Issued by NWS Bismarck, ND

Home | Current Version | Previous Version | Graphics & Text | Print | Product List | Glossary On
Versions: 1 2 3 4 5 6 7 8 9 10 11 12 13 14 15 16 17
000
FTUS43 KBIS 291100
TAFBIS
TAF
KBIS 291128Z 2912/3012 33013G19KT P6SM OVC015
     FM291400 33011KT P6SM OVC015
     FM292200 02005KT P6SM BKN018 OVC022
     FM300300 13005KT P6SM BKN015=

USA.gov is the U.S. government's official web portal to all federal, state and local government web resources and services.